PWSweather.com
Personal Weather Stations
Station Observations
ERMELO
Centre, ErmeloNL

CentreErmeloNL

Lat: 52.2986655, Lon: 5.6296194

Elevation: 41

Station Type: Oregon WMR200

www.meteoermelo.nl

High Low Average
Temperature 49.3°F9.6°C 44.8°F7.1°C 47.1°F8.4°C
Dew Point 46.9°F8.3°C 28.1°F-2.2°C 39.9°F4.4°C
Winds 14.8 mph 23.8 kmh 4.4 mph 7.1 kmh 9.0 mph W14.5 kmh W
Wind Gusts 29.1 mph46.8 kmh 6.5 mph10.5 kmh 17.0 mph27.4 kmh
Humidity 98% 49% 78%
Pressure 29.92 in1013.2 mb 29.56 in1001.0 mb -
Precipitation 0.00 in0.0 mm - -
Hour Temp Dew Point Humidity Winds Wind Gusts Pressure Precip Precip Rate Daily Precip Total
12:00 AM 45.7°F7.6°C 40.5°F4.7°C 82% 5.5 mph W8.9 kmh W 11.0 mph17.7 kmh 29.92 in1013.2 mb 0.00 in0.0 mm 0.00 in0.0 mm 0.00 in0.0 mm
12:15 AM 45.7°F7.6°C 40.5°F4.7°C 82% 5.4 mph W8.7 kmh W 9.8 mph15.8 kmh 29.89 in1012.2 mb 0.00 in0.0 mm 0.00 in0.0 mm 0.00 in0.0 mm
12:30 AM 45.7°F7.6°C 40.5°F4.7°C 82% 5.7 mph W9.2 kmh W 10.5 mph16.9 kmh 29.89 in1012.2 mb 0.00 in0.0 mm 0.00 in0.0 mm 0.00 in0.0 mm
12:45 AM 45.9°F7.7°C 40.7°F4.8°C 82% 5.7 mph W9.2 kmh W 10.1 mph16.3 kmh 29.89 in1012.2 mb 0.00 in0.0 mm 0.00 in0.0 mm 0.00 in0.0 mm
01:00 AM 45.9°F7.7°C 40.7°F4.8°C 82% 4.8 mph W7.7 kmh W 8.1 mph13.0 kmh 29.89 in1012.2 mb 0.00 in0.0 mm 0.00 in0.0 mm 0.00 in0.0 mm
01:15 AM 45.9°F7.7°C 40.7°F4.8°C 82% 5.3 mph W8.5 kmh W 8.9 mph14.3 kmh 29.89 in1012.2 mb 0.00 in0.0 mm 0.00 in0.0 mm 0.00 in0.0 mm
01:30 AM 45.9°F7.7°C 41.0°F5.0°C 83% 4.7 mph W7.6 kmh W 11.2 mph18.0 kmh 29.89 in1012.2 mb 0.00 in0.0 mm 0.00 in0.0 mm 0.00 in0.0 mm
01:45 AM 46.0°F7.8°C 41.2°F5.1°C 83% 5.7 mph W9.2 kmh W 10.5 mph16.9 kmh 29.86 in1011.2 mb 0.00 in0.0 mm 0.00 in0.0 mm 0.00 in0.0 mm
02:00 AM 46.0°F7.8°C 41.2°F5.1°C 83% 4.9 mph W7.9 kmh W 10.1 mph16.3 kmh 29.89 in1012.2 mb 0.00 in0.0 mm 0.00 in0.0 mm 0.00 in0.0 mm
02:15 AM 46.0°F7.8°C 41.2°F5.1°C 83% 4.4 mph WSW7.1 kmh WSW 8.1 mph13.0 kmh 29.86 in1011.2 mb 0.00 in0.0 mm 0.00 in0.0 mm 0.00 in0.0 mm
02:30 AM 45.9°F7.7°C 41.0°F5.0°C 83% 4.4 mph WSW7.1 kmh WSW 6.5 mph10.5 kmh 29.92 in1013.2 mb 0.00 in0.0 mm 0.00 in0.0 mm 0.00 in0.0 mm
02:45 AM 45.7°F7.6°C 41.1°F5.1°C 84% 5.2 mph WSW8.4 kmh WSW 7.8 mph12.6 kmh 29.86 in1011.2 mb 0.00 in0.0 mm 0.00 in0.0 mm 0.00 in0.0 mm
03:00 AM 45.5°F7.5°C 41.3°F5.2°C 85% 4.8 mph WSW7.7 kmh WSW 7.6 mph12.2 kmh 29.86 in1011.2 mb 0.00 in0.0 mm 0.00 in0.0 mm 0.00 in0.0 mm
03:15 AM 45.5°F7.5°C 41.6°F5.3°C 86% 5.7 mph WSW9.2 kmh WSW 8.7 mph14.0 kmh 29.89 in1012.2 mb 0.00 in0.0 mm 0.00 in0.0 mm 0.00 in0.0 mm
03:30 AM 45.5°F7.5°C 41.9°F5.5°C 87% 5.8 mph WSW9.3 kmh WSW 8.7 mph14.0 kmh 29.89 in1012.2 mb 0.00 in0.0 mm 0.00 in0.0 mm 0.00 in0.0 mm
03:45 AM 45.7°F7.6°C 42.0°F5.6°C 87% 5.2 mph WSW8.4 kmh WSW 8.7 mph14.0 kmh 29.86 in1011.2 mb 0.00 in0.0 mm 0.00 in0.0 mm 0.00 in0.0 mm
04:00 AM 45.7°F7.6°C 42.3°F5.7°C 88% 6.3 mph WSW10.1 kmh WSW 10.5 mph16.9 kmh 29.86 in1011.2 mb 0.00 in0.0 mm 0.00 in0.0 mm 0.00 in0.0 mm
04:15 AM 45.7°F7.6°C 42.6°F5.9°C 89% 5.9 mph SW9.5 kmh SW 8.7 mph14.0 kmh 29.86 in1011.2 mb 0.00 in0.0 mm 0.00 in0.0 mm 0.00 in0.0 mm
04:30 AM 45.9°F7.7°C 43.1°F6.2°C 90% 7.2 mph WSW11.6 kmh WSW 11.0 mph17.7 kmh 29.83 in1010.2 mb 0.00 in0.0 mm 0.00 in0.0 mm 0.00 in0.0 mm
04:45 AM 46.0°F7.8°C 43.6°F6.4°C 91% 6.6 mph WSW10.6 kmh WSW 10.7 mph17.2 kmh 29.83 in1010.2 mb 0.00 in0.0 mm 0.00 in0.0 mm 0.00 in0.0 mm
05:00 AM 46.0°F7.8°C 43.8°F6.6°C 92% 6.4 mph SW10.3 kmh SW 12.1 mph19.5 kmh 29.80 in1009.1 mb 0.00 in0.0 mm 0.00 in0.0 mm 0.00 in0.0 mm
05:15 AM 46.2°F7.9°C 44.3°F6.8°C 93% 8.7 mph WSW14.0 kmh WSW 12.8 mph20.6 kmh 29.83 in1010.2 mb 0.00 in0.0 mm 0.00 in0.0 mm 0.00 in0.0 mm
05:30 AM 46.2°F7.9°C 44.3°F6.8°C 93% 7.0 mph WSW11.3 kmh WSW 10.7 mph17.2 kmh 29.80 in1009.1 mb 0.00 in0.0 mm 0.00 in0.0 mm 0.00 in0.0 mm
05:45 AM 46.2°F7.9°C 44.6°F7.0°C 94% 7.8 mph WSW12.6 kmh WSW 12.5 mph20.1 kmh 29.77 in1008.1 mb 0.00 in0.0 mm 0.00 in0.0 mm 0.00 in0.0 mm
06:00 AM 46.4°F8.0°C 44.8°F7.1°C 94% 5.7 mph WSW9.2 kmh WSW 12.1 mph19.5 kmh 29.77 in1008.1 mb 0.00 in0.0 mm 0.00 in0.0 mm 0.00 in0.0 mm
06:15 AM 46.6°F8.1°C 45.2°F7.3°C 95% 7.4 mph WSW11.9 kmh WSW 12.5 mph20.1 kmh 29.77 in1008.1 mb 0.00 in0.0 mm 0.00 in0.0 mm 0.00 in0.0 mm
06:30 AM 46.8°F8.2°C 45.7°F7.6°C 96% 6.2 mph WSW10.0 kmh WSW 10.5 mph16.9 kmh 29.77 in1008.1 mb 0.00 in0.0 mm 0.00 in0.0 mm 0.00 in0.0 mm
06:45 AM 46.9°F8.3°C 45.9°F7.7°C 96% 7.5 mph W12.1 kmh W 15.9 mph25.6 kmh 29.74 in1007.1 mb 0.00 in0.0 mm 0.00 in0.0 mm 0.00 in0.0 mm
07:00 AM 47.1°F8.4°C 46.3°F7.9°C 97% 7.5 mph W12.1 kmh W 15.4 mph24.8 kmh 29.74 in1007.1 mb 0.00 in0.0 mm 0.00 in0.0 mm 0.00 in0.0 mm
07:15 AM 47.3°F8.5°C 46.8°F8.2°C 98% 10.0 mph W16.1 kmh W 15.4 mph24.8 kmh 29.77 in1008.1 mb 0.00 in0.0 mm 0.00 in0.0 mm 0.00 in0.0 mm
07:30 AM 47.3°F8.5°C 46.8°F8.2°C 98% 9.6 mph W15.4 kmh W 15.7 mph25.3 kmh 29.77 in1008.1 mb 0.00 in0.0 mm 0.00 in0.0 mm 0.00 in0.0 mm
07:45 AM 47.5°F8.6°C 46.9°F8.3°C 98% 9.8 mph W15.8 kmh W 18.8 mph30.3 kmh 29.77 in1008.1 mb 0.00 in0.0 mm 0.00 in0.0 mm 0.00 in0.0 mm
08:00 AM 47.3°F8.5°C 46.8°F8.2°C 98% 8.5 mph W13.7 kmh W 15.4 mph24.8 kmh 29.77 in1008.1 mb 0.00 in0.0 mm 0.00 in0.0 mm 0.00 in0.0 mm
08:15 AM 47.3°F8.5°C 46.8°F8.2°C 98% 8.1 mph W13.0 kmh W 16.1 mph25.9 kmh 29.77 in1008.1 mb 0.00 in0.0 mm 0.00 in0.0 mm 0.00 in0.0 mm
08:30 AM 47.3°F8.5°C 46.8°F8.2°C 98% 7.7 mph W12.4 kmh W 18.1 mph29.1 kmh 29.77 in1008.1 mb 0.00 in0.0 mm 0.00 in0.0 mm 0.00 in0.0 mm
08:45 AM 47.3°F8.5°C 46.5°F8.1°C 97% 9.0 mph W14.5 kmh W 14.5 mph23.3 kmh 29.77 in1008.1 mb 0.00 in0.0 mm 0.00 in0.0 mm 0.00 in0.0 mm
09:00 AM 47.3°F8.5°C 46.2°F7.9°C 96% 9.7 mph W15.6 kmh W 17.4 mph28.0 kmh 29.74 in1007.1 mb 0.00 in0.0 mm 0.00 in0.0 mm 0.00 in0.0 mm
09:15 AM 47.5°F8.6°C 46.1°F7.8°C 95% 10.0 mph W16.1 kmh W 15.4 mph24.8 kmh 29.74 in1007.1 mb 0.00 in0.0 mm 0.00 in0.0 mm 0.00 in0.0 mm
09:30 AM 47.5°F8.6°C 45.6°F7.6°C 93% 8.9 mph W14.3 kmh W 17.7 mph28.5 kmh 29.74 in1007.1 mb 0.00 in0.0 mm 0.00 in0.0 mm 0.00 in0.0 mm
09:45 AM 47.5°F8.6°C 45.3°F7.4°C 92% 9.2 mph W14.8 kmh W 17.0 mph27.4 kmh 29.74 in1007.1 mb 0.00 in0.0 mm 0.00 in0.0 mm 0.00 in0.0 mm
10:00 AM 47.5°F8.6°C 45.0°F7.2°C 91% 9.2 mph W14.8 kmh W 23.0 mph37.0 kmh 29.71 in1006.1 mb 0.00 in0.0 mm 0.00 in0.0 mm 0.00 in0.0 mm
10:15 AM 47.7°F8.7°C 44.3°F6.8°C 88% 10.7 mph W17.2 kmh W 19.9 mph32.0 kmh 29.71 in1006.1 mb 0.00 in0.0 mm 0.00 in0.0 mm 0.00 in0.0 mm
10:30 AM 47.7°F8.7°C 44.6°F7.0°C 89% 8.6 mph W13.8 kmh W 16.3 mph26.2 kmh 29.71 in1006.1 mb 0.00 in0.0 mm 0.00 in0.0 mm 0.00 in0.0 mm
10:45 AM 47.5°F8.6°C 45.0°F7.2°C 91% 7.2 mph W11.6 kmh W 12.5 mph20.1 kmh 29.71 in1006.1 mb 0.00 in0.0 mm 0.00 in0.0 mm 0.00 in0.0 mm
11:00 AM 47.3°F8.5°C 45.4°F7.4°C 93% 9.4 mph W15.1 kmh W 15.9 mph25.6 kmh 29.71 in1006.1 mb 0.00 in0.0 mm 0.00 in0.0 mm 0.00 in0.0 mm
11:15 AM 47.3°F8.5°C 45.7°F7.6°C 94% 6.5 mph W10.5 kmh W 10.3 mph16.6 kmh 29.71 in1006.1 mb 0.00 in0.0 mm 0.00 in0.0 mm 0.00 in0.0 mm
11:30 AM 47.3°F8.5°C 45.9°F7.7°C 95% 8.8 mph W14.2 kmh W 17.4 mph28.0 kmh 29.68 in1005.1 mb 0.00 in0.0 mm 0.00 in0.0 mm 0.00 in0.0 mm
11:45 AM 47.7°F8.7°C 46.3°F7.9°C 95% 8.7 mph W14.0 kmh W 17.4 mph28.0 kmh 29.71 in1006.1 mb 0.00 in0.0 mm 0.00 in0.0 mm 0.00 in0.0 mm
12:00 PM 47.8°F8.8°C 46.2°F7.9°C 94% 11.1 mph W17.9 kmh W 16.3 mph26.2 kmh 29.71 in1006.1 mb 0.00 in0.0 mm 0.00 in0.0 mm 0.00 in0.0 mm
12:15 PM 47.8°F8.8°C 45.9°F7.7°C 93% 9.2 mph W14.8 kmh W 17.4 mph28.0 kmh 29.68 in1005.1 mb 0.00 in0.0 mm 0.00 in0.0 mm 0.00 in0.0 mm
12:30 PM 47.8°F8.8°C 45.9°F7.7°C 93% 9.4 mph W15.1 kmh W 17.9 mph28.8 kmh 29.68 in1005.1 mb 0.00 in0.0 mm 0.00 in0.0 mm 0.00 in0.0 mm
12:45 PM 48.0°F8.9°C 45.5°F7.5°C 91% 9.0 mph WNW14.5 kmh WNW 19.7 mph31.7 kmh 29.65 in1004.1 mb 0.00 in0.0 mm 0.00 in0.0 mm 0.00 in0.0 mm
01:00 PM 48.2°F9.0°C 44.5°F6.9°C 87% 11.5 mph W18.5 kmh W 21.9 mph35.2 kmh 29.65 in1004.1 mb 0.00 in0.0 mm 0.00 in0.0 mm 0.00 in0.0 mm
01:15 PM 48.4°F9.1°C 43.8°F6.6°C 84% 10.5 mph W16.9 kmh W 19.7 mph31.7 kmh 29.62 in1003.0 mb 0.00 in0.0 mm 0.00 in0.0 mm 0.00 in0.0 mm
01:30 PM 48.6°F9.2°C 43.3°F6.3°C 82% 9.0 mph W14.5 kmh W 15.4 mph24.8 kmh 29.62 in1003.0 mb 0.00 in0.0 mm 0.00 in0.0 mm 0.00 in0.0 mm
01:45 PM 48.6°F9.2°C 42.7°F5.9°C 80% 10.3 mph W16.6 kmh W 19.7 mph31.7 kmh 29.65 in1004.1 mb 0.00 in0.0 mm 0.00 in0.0 mm 0.00 in0.0 mm
02:00 PM 48.6°F9.2°C 42.3°F5.7°C 79% 11.6 mph W18.7 kmh W 24.2 mph38.9 kmh 29.62 in1003.0 mb 0.00 in0.0 mm 0.00 in0.0 mm 0.00 in0.0 mm
02:15 PM 48.4°F9.1°C 42.2°F5.7°C 79% 11.3 mph W18.2 kmh W 23.7 mph38.1 kmh 29.62 in1003.0 mb 0.00 in0.0 mm 0.00 in0.0 mm 0.00 in0.0 mm
02:30 PM 48.6°F9.2°C 42.0°F5.6°C 78% 11.0 mph WNW17.7 kmh WNW 17.7 mph28.5 kmh 29.62 in1003.0 mb 0.00 in0.0 mm 0.00 in0.0 mm 0.00 in0.0 mm
02:45 PM 48.7°F9.3°C 41.5°F5.3°C 76% 11.8 mph W19.0 kmh W 23.7 mph38.1 kmh 29.62 in1003.0 mb 0.00 in0.0 mm 0.00 in0.0 mm 0.00 in0.0 mm
03:00 PM 48.7°F9.3°C 40.8°F4.9°C 74% 12.6 mph W20.3 kmh W 28.4 mph45.7 kmh 29.62 in1003.0 mb 0.00 in0.0 mm 0.00 in0.0 mm 0.00 in0.0 mm
03:15 PM 48.9°F9.4°C 40.6°F4.8°C 73% 11.5 mph WNW18.5 kmh WNW 19.9 mph32.0 kmh 29.62 in1003.0 mb 0.00 in0.0 mm 0.00 in0.0 mm 0.00 in0.0 mm
03:30 PM 48.9°F9.4°C 39.9°F4.4°C 71% 12.4 mph WNW20.0 kmh WNW 25.3 mph40.7 kmh 29.62 in1003.0 mb 0.00 in0.0 mm 0.00 in0.0 mm 0.00 in0.0 mm
03:45 PM 49.1°F9.5°C 39.7°F4.3°C 70% 11.8 mph WNW19.0 kmh WNW 22.4 mph36.0 kmh 29.62 in1003.0 mb 0.00 in0.0 mm 0.00 in0.0 mm 0.00 in0.0 mm
04:00 PM 49.1°F9.5°C 39.0°F3.9°C 68% 13.0 mph WNW20.9 kmh WNW 27.7 mph44.6 kmh 29.59 in1002.0 mb 0.00 in0.0 mm 0.00 in0.0 mm 0.00 in0.0 mm
04:15 PM 49.1°F9.5°C 38.6°F3.7°C 67% 13.6 mph WNW21.9 kmh WNW 28.4 mph45.7 kmh 29.59 in1002.0 mb 0.00 in0.0 mm 0.00 in0.0 mm 0.00 in0.0 mm
04:30 PM 49.1°F9.5°C 38.2°F3.4°C 66% 13.2 mph WNW21.2 kmh WNW 24.6 mph39.6 kmh 29.62 in1003.0 mb 0.00 in0.0 mm 0.00 in0.0 mm 0.00 in0.0 mm
04:45 PM 49.1°F9.5°C 38.2°F3.4°C 66% 12.6 mph WNW20.3 kmh WNW 25.1 mph40.4 kmh 29.59 in1002.0 mb 0.00 in0.0 mm 0.00 in0.0 mm 0.00 in0.0 mm
05:00 PM 48.7°F9.3°C 38.6°F3.7°C 68% 12.0 mph WNW19.3 kmh WNW 17.7 mph28.5 kmh 29.56 in1001.0 mb 0.00 in0.0 mm 0.00 in0.0 mm 0.00 in0.0 mm
05:15 PM 49.1°F9.5°C 37.0°F2.8°C 63% 14.8 mph WNW23.8 kmh WNW 26.2 mph42.2 kmh 29.59 in1002.0 mb 0.00 in0.0 mm 0.00 in0.0 mm 0.00 in0.0 mm
05:30 PM 49.1°F9.5°C 34.9°F1.6°C 58% 13.5 mph WNW21.7 kmh WNW 23.3 mph37.5 kmh 29.56 in1001.0 mb 0.00 in0.0 mm 0.00 in0.0 mm 0.00 in0.0 mm
05:45 PM 49.3°F9.6°C 33.8°F1.0°C 55% 14.3 mph WNW23.0 kmh WNW 29.1 mph46.8 kmh 29.59 in1002.0 mb 0.00 in0.0 mm 0.00 in0.0 mm 0.00 in0.0 mm
06:00 PM 48.7°F9.3°C 31.9°F-0.1°C 52% 10.9 mph WNW17.5 kmh WNW 18.8 mph30.3 kmh 29.56 in1001.0 mb 0.00 in0.0 mm 0.00 in0.0 mm 0.00 in0.0 mm
06:15 PM 48.0°F8.9°C 31.7°F-0.2°C 53% 10.4 mph WNW16.7 kmh WNW 22.6 mph36.4 kmh 29.59 in1002.0 mb 0.00 in0.0 mm 0.00 in0.0 mm 0.00 in0.0 mm
06:30 PM 47.8°F8.8°C 32.4°F0.2°C 55% 12.3 mph WNW19.8 kmh WNW 22.1 mph35.6 kmh 29.59 in1002.0 mb 0.00 in0.0 mm 0.00 in0.0 mm 0.00 in0.0 mm
06:45 PM 47.8°F8.8°C 33.3°F0.7°C 57% 10.7 mph WNW17.2 kmh WNW 22.1 mph35.6 kmh 29.59 in1002.0 mb 0.00 in0.0 mm 0.00 in0.0 mm 0.00 in0.0 mm
07:00 PM 47.7°F8.7°C 33.2°F0.7°C 57% 11.0 mph WNW17.7 kmh WNW 19.9 mph32.0 kmh 29.59 in1002.0 mb 0.00 in0.0 mm 0.00 in0.0 mm 0.00 in0.0 mm
07:15 PM 47.3°F8.5°C 32.4°F0.2°C 56% 10.1 mph WNW16.3 kmh WNW 18.1 mph29.1 kmh 29.59 in1002.0 mb 0.00 in0.0 mm 0.00 in0.0 mm 0.00 in0.0 mm
07:30 PM 47.1°F8.4°C 32.7°F0.4°C 57% 10.5 mph WNW16.9 kmh WNW 19.9 mph32.0 kmh 29.59 in1002.0 mb 0.00 in0.0 mm 0.00 in0.0 mm 0.00 in0.0 mm
07:45 PM 47.3°F8.5°C 32.4°F0.2°C 56% 11.1 mph NW17.9 kmh NW 22.1 mph35.6 kmh 29.59 in1002.0 mb 0.00 in0.0 mm 0.00 in0.0 mm 0.00 in0.0 mm
08:00 PM 47.1°F8.4°C 32.7°F0.4°C 57% 9.1 mph WNW14.6 kmh WNW 17.7 mph28.5 kmh 29.59 in1002.0 mb 0.00 in0.0 mm 0.00 in0.0 mm 0.00 in0.0 mm
08:15 PM 47.1°F8.4°C 31.3°F-0.4°C 54% 10.4 mph WNW16.7 kmh WNW 20.1 mph32.3 kmh 29.59 in1002.0 mb 0.00 in0.0 mm 0.00 in0.0 mm 0.00 in0.0 mm
08:30 PM 47.1°F8.4°C 31.3°F-0.4°C 54% 9.8 mph WNW15.8 kmh WNW 17.0 mph27.4 kmh 29.59 in1002.0 mb 0.00 in0.0 mm 0.00 in0.0 mm 0.00 in0.0 mm
08:45 PM 47.1°F8.4°C 31.3°F-0.4°C 54% 9.9 mph NW15.9 kmh NW 17.0 mph27.4 kmh 29.62 in1003.0 mb 0.00 in0.0 mm 0.00 in0.0 mm 0.00 in0.0 mm
09:00 PM 46.9°F8.3°C 30.7°F-0.7°C 53% 9.3 mph WNW15.0 kmh WNW 19.0 mph30.6 kmh 29.62 in1003.0 mb 0.00 in0.0 mm 0.00 in0.0 mm 0.00 in0.0 mm
09:15 PM 46.8°F8.2°C 29.6°F-1.3°C 51% 9.7 mph NW15.6 kmh NW 16.6 mph26.7 kmh 29.62 in1003.0 mb 0.00 in0.0 mm 0.00 in0.0 mm 0.00 in0.0 mm
09:30 PM 46.8°F8.2°C 29.6°F-1.3°C 51% 10.4 mph WNW16.7 kmh WNW 16.6 mph26.7 kmh 29.62 in1003.0 mb 0.00 in0.0 mm 0.00 in0.0 mm 0.00 in0.0 mm
09:45 PM 46.6°F8.1°C 28.9°F-1.7°C 50% 9.6 mph NW15.4 kmh NW 14.8 mph23.8 kmh 29.65 in1004.1 mb 0.00 in0.0 mm 0.00 in0.0 mm 0.00 in0.0 mm
10:00 PM 46.6°F8.1°C 28.4°F-2.0°C 49% 8.8 mph NW14.2 kmh NW 15.4 mph24.8 kmh 29.65 in1004.1 mb 0.00 in0.0 mm 0.00 in0.0 mm 0.00 in0.0 mm
10:15 PM 46.2°F7.9°C 28.1°F-2.2°C 49% 9.6 mph WNW15.4 kmh WNW 17.2 mph27.7 kmh 29.65 in1004.1 mb 0.00 in0.0 mm 0.00 in0.0 mm 0.00 in0.0 mm
10:30 PM 45.5°F7.5°C 29.3°F-1.5°C 53% 8.9 mph WNW14.3 kmh WNW 16.1 mph25.9 kmh 29.65 in1004.1 mb 0.00 in0.0 mm 0.00 in0.0 mm 0.00 in0.0 mm
10:45 PM 45.5°F7.5°C 29.3°F-1.5°C 53% 9.3 mph NW15.0 kmh NW 23.5 mph37.8 kmh 29.65 in1004.1 mb 0.00 in0.0 mm 0.00 in0.0 mm 0.00 in0.0 mm
11:00 PM 45.3°F7.4°C 28.7°F-1.8°C 52% 10.1 mph WNW16.3 kmh WNW 24.4 mph39.3 kmh 29.62 in1003.0 mb 0.00 in0.0 mm 0.00 in0.0 mm 0.00 in0.0 mm
11:15 PM 45.0°F7.2°C 28.8°F-1.8°C 53% 9.2 mph WNW14.8 kmh WNW 16.1 mph25.9 kmh 29.65 in1004.1 mb 0.00 in0.0 mm 0.00 in0.0 mm 0.00 in0.0 mm
11:30 PM 44.8°F7.1°C 30.0°F-1.1°C 56% 7.8 mph NW12.6 kmh NW 14.5 mph23.3 kmh 29.65 in1004.1 mb 0.00 in0.0 mm 0.00 in0.0 mm 0.00 in0.0 mm
11:45 PM 45.0°F7.2°C 31.1°F-0.5°C 58% 8.6 mph WNW13.8 kmh WNW 14.5 mph23.3 kmh 29.65 in1004.1 mb 0.00 in0.0 mm 0.00 in0.0 mm 0.00 in0.0 mm